sensor_id;sensor_type;location;lat;lon;timestamp;P1;durP1;ratioP1;P2;durP2;ratioP2
37411;SDS011;23278;52.110;6.050;2024-01-10T00:02:17;5.13;;;1.93;;
37411;SDS011;23278;52.110;6.050;2024-01-10T00:04:43;3.83;;;2.10;;
37411;SDS011;23278;52.110;6.050;2024-01-10T00:07:09;4.17;;;2.53;;
37411;SDS011;23278;52.110;6.050;2024-01-10T00:09:35;4.07;;;1.57;;
37411;SDS011;23278;52.110;6.050;2024-01-10T00:12:01;2.97;;;1.20;;
37411;SDS011;23278;52.110;6.050;2024-01-10T00:14:27;4.23;;;1.70;;
37411;SDS011;23278;52.110;6.050;2024-01-10T00:16:52;6.00;;;1.90;;
37411;SDS011;23278;52.110;6.050;2024-01-10T00:19:18;5.17;;;2.03;;
37411;SDS011;23278;52.110;6.050;2024-01-10T00:21:44;3.37;;;1.53;;
37411;SDS011;23278;52.110;6.050;2024-01-10T00:24:10;4.37;;;1.83;;
37411;SDS011;23278;52.110;6.050;2024-01-10T00:26:36;3.50;;;1.70;;
37411;SDS011;23278;52.110;6.050;2024-01-10T00:29:02;4.27;;;1.53;;
37411;SDS011;23278;52.110;6.050;2024-01-10T00:31:28;6.00;;;2.37;;
37411;SDS011;23278;52.110;6.050;2024-01-10T00:33:53;2.90;;;1.20;;
37411;SDS011;23278;52.110;6.050;2024-01-10T00:36:19;6.20;;;1.97;;
37411;SDS011;23278;52.110;6.050;2024-01-10T00:38:46;2.93;;;1.60;;
37411;SDS011;23278;52.110;6.050;2024-01-10T00:41:12;3.60;;;1.30;;
37411;SDS011;23278;52.110;6.050;2024-01-10T00:43:37;4.23;;;1.80;;
37411;SDS011;23278;52.110;6.050;2024-01-10T00:46:03;4.43;;;1.53;;
37411;SDS011;23278;52.110;6.050;2024-01-10T00:48:29;4.47;;;1.90;;
37411;SDS011;23278;52.110;6.050;2024-01-10T00:50:55;6.27;;;1.87;;
37411;SDS011;23278;52.110;6.050;2024-01-10T00:53:21;4.70;;;1.50;;
37411;SDS011;23278;52.110;6.050;2024-01-10T00:55:47;3.10;;;1.50;;
37411;SDS011;23278;52.110;6.050;2024-01-10T00:58:13;3.70;;;1.73;;
37411;SDS011;23278;52.110;6.050;2024-01-10T01:00:39;6.07;;;1.47;;
37411;SDS011;23278;52.110;6.050;2024-01-10T01:03:06;5.33;;;2.37;;
37411;SDS011;23278;52.110;6.050;2024-01-10T01:05:32;5.93;;;1.90;;
37411;SDS011;23278;52.110;6.050;2024-01-10T01:07:57;5.17;;;1.60;;
37411;SDS011;23278;52.110;6.050;2024-01-10T01:10:23;4.80;;;1.60;;
37411;SDS011;23278;52.110;6.050;2024-01-10T01:12:49;6.57;;;1.87;;
37411;SDS011;23278;52.110;6.050;2024-01-10T01:15:15;5.90;;;1.47;;
37411;SDS011;23278;52.110;6.050;2024-01-10T01:17:41;3.27;;;1.57;;
37411;SDS011;23278;52.110;6.050;2024-01-10T01:20:07;3.83;;;2.20;;
37411;SDS011;23278;52.110;6.050;2024-01-10T01:22:34;5.30;;;2.57;;
37411;SDS011;23278;52.110;6.050;2024-01-10T01:25:00;5.67;;;2.03;;
37411;SDS011;23278;52.110;6.050;2024-01-10T01:27:26;4.57;;;2.67;;
37411;SDS011;23278;52.110;6.050;2024-01-10T01:29:52;6.00;;;2.20;;
37411;SDS011;23278;52.110;6.050;2024-01-10T01:32:17;4.90;;;2.33;;
37411;SDS011;23278;52.110;6.050;2024-01-10T01:34:43;4.53;;;2.63;;
37411;SDS011;23278;52.110;6.050;2024-01-10T01:37:09;5.47;;;2.43;;
37411;SDS011;23278;52.110;6.050;2024-01-10T01:39:35;3.63;;;1.93;;
37411;SDS011;23278;52.110;6.050;2024-01-10T01:42:01;5.00;;;2.03;;
37411;SDS011;23278;52.110;6.050;2024-01-10T01:44:27;7.50;;;1.90;;
37411;SDS011;23278;52.110;6.050;2024-01-10T01:46:54;5.77;;;2.30;;
37411;SDS011;23278;52.110;6.050;2024-01-10T01:49:20;3.77;;;1.30;;
37411;SDS011;23278;52.110;6.050;2024-01-10T01:51:46;3.60;;;1.77;;
37411;SDS011;23278;52.110;6.050;2024-01-10T01:54:13;3.10;;;1.50;;
37411;SDS011;23278;52.110;6.050;2024-01-10T01:56:39;4.30;;;1.70;;
37411;SDS011;23278;52.110;6.050;2024-01-10T01:59:06;5.17;;;2.60;;
37411;SDS011;23278;52.110;6.050;2024-01-10T02:01:32;5.60;;;2.97;;
37411;SDS011;23278;52.110;6.050;2024-01-10T02:04:00;2.50;;;1.50;;
37411;SDS011;23278;52.110;6.050;2024-01-10T02:06:29;3.80;;;2.07;;
37411;SDS011;23278;52.110;6.050;2024-01-10T02:08:56;3.40;;;1.60;;
37411;SDS011;23278;52.110;6.050;2024-01-10T02:11:23;5.37;;;2.10;;
37411;SDS011;23278;52.110;6.050;2024-01-10T02:13:49;5.17;;;1.73;;
37411;SDS011;23278;52.110;6.050;2024-01-10T02:16:17;4.63;;;2.77;;
37411;SDS011;23278;52.110;6.050;2024-01-10T02:18:43;6.57;;;2.10;;
37411;SDS011;23278;52.110;6.050;2024-01-10T02:21:09;5.33;;;2.00;;
37411;SDS011;23278;52.110;6.050;2024-01-10T02:23:35;4.37;;;2.37;;
37411;SDS011;23278;52.110;6.050;2024-01-10T02:26:01;6.33;;;2.40;;
37411;SDS011;23278;52.110;6.050;2024-01-10T02:28:28;4.40;;;1.83;;
37411;SDS011;23278;52.110;6.050;2024-01-10T02:30:54;4.03;;;2.13;;
37411;SDS011;23278;52.110;6.050;2024-01-10T02:33:21;4.23;;;2.13;;
37411;SDS011;23278;52.110;6.050;2024-01-10T02:35:47;4.27;;;1.90;;
37411;SDS011;23278;52.110;6.050;2024-01-10T02:38:13;4.70;;;2.00;;
37411;SDS011;23278;52.110;6.050;2024-01-10T02:40:38;3.37;;;1.63;;
37411;SDS011;23278;52.110;6.050;2024-01-10T02:43:04;4.40;;;2.53;;
37411;SDS011;23278;52.110;6.050;2024-01-10T02:45:32;4.17;;;2.20;;
37411;SDS011;23278;52.110;6.050;2024-01-10T02:47:59;3.83;;;1.87;;
37411;SDS011;23278;52.110;6.050;2024-01-10T02:50:24;4.70;;;2.50;;
37411;SDS011;23278;52.110;6.050;2024-01-10T02:52:50;3.27;;;1.63;;
37411;SDS011;23278;52.110;6.050;2024-01-10T02:55:16;4.23;;;2.10;;
37411;SDS011;23278;52.110;6.050;2024-01-10T02:57:42;4.77;;;2.17;;
37411;SDS011;23278;52.110;6.050;2024-01-10T03:00:08;4.77;;;2.07;;
37411;SDS011;23278;52.110;6.050;2024-01-10T03:02:34;6.30;;;2.20;;
37411;SDS011;23278;52.110;6.050;2024-01-10T03:05:00;8.50;;;3.37;;
37411;SDS011;23278;52.110;6.050;2024-01-10T03:07:26;4.40;;;2.07;;
37411;SDS011;23278;52.110;6.050;2024-01-10T03:09:52;2.57;;;1.30;;
37411;SDS011;23278;52.110;6.050;2024-01-10T03:12:18;3.53;;;1.37;;
37411;SDS011;23278;52.110;6.050;2024-01-10T03:14:44;3.43;;;2.07;;
37411;SDS011;23278;52.110;6.050;2024-01-10T03:17:10;6.03;;;1.80;;
37411;SDS011;23278;52.110;6.050;2024-01-10T03:19:36;4.43;;;2.00;;
37411;SDS011;23278;52.110;6.050;2024-01-10T03:22:09;4.67;;;2.07;;
37411;SDS011;23278;52.110;6.050;2024-01-10T03:24:36;3.83;;;2.07;;
37411;SDS011;23278;52.110;6.050;2024-01-10T03:27:03;2.80;;;1.70;;
37411;SDS011;23278;52.110;6.050;2024-01-10T03:29:30;4.57;;;1.83;;
37411;SDS011;23278;52.110;6.050;2024-01-10T03:31:55;4.47;;;1.63;;
37411;SDS011;23278;52.110;6.050;2024-01-10T03:34:21;3.03;;;1.57;;
37411;SDS011;23278;52.110;6.050;2024-01-10T03:36:47;4.17;;;1.83;;
37411;SDS011;23278;52.110;6.050;2024-01-10T03:39:13;3.10;;;1.70;;
37411;SDS011;23278;52.110;6.050;2024-01-10T03:41:39;4.47;;;2.20;;
37411;SDS011;23278;52.110;6.050;2024-01-10T03:44:05;4.20;;;2.10;;
37411;SDS011;23278;52.110;6.050;2024-01-10T03:46:31;4.43;;;2.37;;
37411;SDS011;23278;52.110;6.050;2024-01-10T03:48:57;3.90;;;2.10;;
37411;SDS011;23278;52.110;6.050;2024-01-10T03:51:23;4.13;;;1.77;;
37411;SDS011;23278;52.110;6.050;2024-01-10T03:53:49;5.20;;;2.47;;
37411;SDS011;23278;52.110;6.050;2024-01-10T03:56:15;2.73;;;1.37;;
37411;SDS011;23278;52.110;6.050;2024-01-10T03:58:41;5.77;;;2.67;;
37411;SDS011;23278;52.110;6.050;2024-01-10T04:01:07;3.13;;;1.40;;
37411;SDS011;23278;52.110;6.050;2024-01-10T04:03:34;3.97;;;2.03;;
37411;SDS011;23278;52.110;6.050;2024-01-10T04:06:01;3.70;;;2.03;;
37411;SDS011;23278;52.110;6.050;2024-01-10T04:08:27;4.63;;;2.07;;
37411;SDS011;23278;52.110;6.050;2024-01-10T04:10:54;3.97;;;1.60;;
37411;SDS011;23278;52.110;6.050;2024-01-10T04:13:20;5.43;;;1.93;;
37411;SDS011;23278;52.110;6.050;2024-01-10T04:15:46;5.37;;;2.73;;
37411;SDS011;23278;52.110;6.050;2024-01-10T04:18:12;4.90;;;2.20;;
37411;SDS011;23278;52.110;6.050;2024-01-10T04:20:38;4.87;;;1.93;;
37411;SDS011;23278;52.110;6.050;2024-01-10T04:23:03;5.60;;;1.80;;
37411;SDS011;23278;52.110;6.050;2024-01-10T04:25:29;4.73;;;2.53;;
37411;SDS011;23278;52.110;6.050;2024-01-10T04:27:56;4.70;;;2.20;;
37411;SDS011;23278;52.110;6.050;2024-01-10T04:30:22;5.50;;;2.17;;
37411;SDS011;23278;52.110;6.050;2024-01-10T04:32:48;5.97;;;2.87;;
37411;SDS011;23278;52.110;6.050;2024-01-10T04:35:14;3.17;;;2.00;;
37411;SDS011;23278;52.110;6.050;2024-01-10T04:37:41;7.97;;;3.20;;
37411;SDS011;23278;52.110;6.050;2024-01-10T04:40:07;5.47;;;2.83;;
37411;SDS011;23278;52.110;6.050;2024-01-10T04:42:33;4.43;;;1.80;;
37411;SDS011;23278;52.110;6.050;2024-01-10T04:44:59;3.67;;;1.80;;
37411;SDS011;23278;52.110;6.050;2024-01-10T04:47:24;6.83;;;2.83;;
37411;SDS011;23278;52.110;6.050;2024-01-10T04:49:50;5.23;;;2.50;;
37411;SDS011;23278;52.110;6.050;2024-01-10T04:52:16;8.43;;;2.90;;
37411;SDS011;23278;52.110;6.050;2024-01-10T04:54:42;6.30;;;2.80;;
37411;SDS011;23278;52.110;6.050;2024-01-10T04:57:10;4.60;;;2.27;;
37411;SDS011;23278;52.110;6.050;2024-01-10T04:59:36;6.17;;;2.80;;
37411;SDS011;23278;52.110;6.050;2024-01-10T05:02:02;5.93;;;2.63;;
37411;SDS011;23278;52.110;6.050;2024-01-10T05:04:28;5.23;;;2.73;;
37411;SDS011;23278;52.110;6.050;2024-01-10T05:06:54;5.60;;;3.20;;
37411;SDS011;23278;52.110;6.050;2024-01-10T05:09:20;6.00;;;2.77;;
37411;SDS011;23278;52.110;6.050;2024-01-10T05:11:46;4.43;;;2.27;;
37411;SDS011;23278;52.110;6.050;2024-01-10T05:14:13;5.60;;;2.70;;
37411;SDS011;23278;52.110;6.050;2024-01-10T05:16:39;5.73;;;3.03;;
37411;SDS011;23278;52.110;6.050;2024-01-10T05:19:05;6.73;;;3.03;;
37411;SDS011;23278;52.110;6.050;2024-01-10T05:21:31;7.50;;;2.80;;
37411;SDS011;23278;52.110;6.050;2024-01-10T05:23:57;6.23;;;2.50;;
37411;SDS011;23278;52.110;6.050;2024-01-10T05:26:23;4.13;;;1.93;;
37411;SDS011;23278;52.110;6.050;2024-01-10T05:28:49;3.87;;;2.70;;
37411;SDS011;23278;52.110;6.050;2024-01-10T05:31:16;5.23;;;2.97;;
37411;SDS011;23278;52.110;6.050;2024-01-10T05:33:42;4.70;;;2.87;;
37411;SDS011;23278;52.110;6.050;2024-01-10T05:36:08;6.07;;;2.70;;
37411;SDS011;23278;52.110;6.050;2024-01-10T05:38:39;4.75;;;2.30;;
37411;SDS011;23278;52.110;6.050;2024-01-10T05:41:05;5.33;;;2.33;;
37411;SDS011;23278;52.110;6.050;2024-01-10T05:43:31;4.77;;;2.57;;
37411;SDS011;23278;52.110;6.050;2024-01-10T05:45:57;9.27;;;3.67;;
37411;SDS011;23278;52.110;6.050;2024-01-10T05:48:24;5.20;;;2.60;;
37411;SDS011;23278;52.110;6.050;2024-01-10T05:50:50;6.13;;;2.67;;
37411;SDS011;23278;52.110;6.050;2024-01-10T05:53:16;5.57;;;2.73;;
37411;SDS011;23278;52.110;6.050;2024-01-10T05:55:43;7.27;;;2.60;;
37411;SDS011;23278;52.110;6.050;2024-01-10T05:58:09;4.27;;;2.27;;
37411;SDS011;23278;52.110;6.050;2024-01-10T06:00:35;4.80;;;2.23;;
37411;SDS011;23278;52.110;6.050;2024-01-10T06:03:02;9.80;;;3.77;;
37411;SDS011;23278;52.110;6.050;2024-01-10T06:05:27;6.60;;;3.13;;
37411;SDS011;23278;52.110;6.050;2024-01-10T06:07:53;8.03;;;2.60;;
37411;SDS011;23278;52.110;6.050;2024-01-10T06:10:21;3.57;;;2.10;;
37411;SDS011;23278;52.110;6.050;2024-01-10T06:12:47;4.67;;;2.17;;
37411;SDS011;23278;52.110;6.050;2024-01-10T06:15:14;9.23;;;4.37;;
37411;SDS011;23278;52.110;6.050;2024-01-10T06:17:40;9.27;;;3.97;;
37411;SDS011;23278;52.110;6.050;2024-01-10T06:20:06;5.13;;;2.70;;
37411;SDS011;23278;52.110;6.050;2024-01-10T06:22:34;6.37;;;2.33;;
37411;SDS011;23278;52.110;6.050;2024-01-10T06:25:00;5.40;;;2.57;;
37411;SDS011;23278;52.110;6.050;2024-01-10T06:27:26;5.37;;;3.00;;
37411;SDS011;23278;52.110;6.050;2024-01-10T06:29:55;5.40;;;1.67;;
37411;SDS011;23278;52.110;6.050;2024-01-10T06:32:21;6.17;;;3.27;;
37411;SDS011;23278;52.110;6.050;2024-01-10T06:34:47;6.43;;;2.53;;
37411;SDS011;23278;52.110;6.050;2024-01-10T06:37:13;5.40;;;2.53;;
37411;SDS011;23278;52.110;6.050;2024-01-10T06:39:39;8.33;;;2.60;;
37411;SDS011;23278;52.110;6.050;2024-01-10T06:42:06;5.60;;;2.50;;
37411;SDS011;23278;52.110;6.050;2024-01-10T06:44:33;6.87;;;2.80;;
37411;SDS011;23278;52.110;6.050;2024-01-10T06:46:59;4.40;;;2.53;;
37411;SDS011;23278;52.110;6.050;2024-01-10T06:49:25;4.47;;;2.13;;
37411;SDS011;23278;52.110;6.050;2024-01-10T06:51:52;4.57;;;1.90;;
37411;SDS011;23278;52.110;6.050;2024-01-10T06:54:18;3.67;;;1.57;;
37411;SDS011;23278;52.110;6.050;2024-01-10T06:56:44;6.97;;;2.50;;
37411;SDS011;23278;52.110;6.050;2024-01-10T06:59:11;3.00;;;1.70;;
37411;SDS011;23278;52.110;6.050;2024-01-10T07:01:37;5.07;;;2.07;;
37411;SDS011;23278;52.110;6.050;2024-01-10T07:04:04;8.13;;;3.27;;
37411;SDS011;23278;52.110;6.050;2024-01-10T07:06:30;7.03;;;3.17;;
37411;SDS011;23278;52.110;6.050;2024-01-10T07:08:56;7.50;;;2.57;;
37411;SDS011;23278;52.110;6.050;2024-01-10T07:11:23;4.83;;;2.23;;
37411;SDS011;23278;52.110;6.050;2024-01-10T07:13:52;5.97;;;2.83;;
37411;SDS011;23278;52.110;6.050;2024-01-10T07:16:17;5.10;;;2.53;;
37411;SDS011;23278;52.110;6.050;2024-01-10T07:18:44;5.03;;;2.33;;
37411;SDS011;23278;52.110;6.050;2024-01-10T07:21:11;5.90;;;2.80;;
37411;SDS011;23278;52.110;6.050;2024-01-10T07:23:37;6.90;;;4.10;;
37411;SDS011;23278;52.110;6.050;2024-01-10T07:26:06;6.10;;;2.80;;
37411;SDS011;23278;52.110;6.050;2024-01-10T07:28:32;7.13;;;2.50;;
37411;SDS011;23278;52.110;6.050;2024-01-10T07:30:58;5.53;;;2.37;;
37411;SDS011;23278;52.110;6.050;2024-01-10T07:33:27;5.77;;;3.13;;
37411;SDS011;23278;52.110;6.050;2024-01-10T07:35:57;6.00;;;2.37;;
37411;SDS011;23278;52.110;6.050;2024-01-10T07:38:23;6.20;;;3.00;;
37411;SDS011;23278;52.110;6.050;2024-01-10T07:40:49;9.20;;;3.50;;
37411;SDS011;23278;52.110;6.050;2024-01-10T07:43:17;6.57;;;3.37;;
37411;SDS011;23278;52.110;6.050;2024-01-10T07:45:43;8.93;;;4.73;;
37411;SDS011;23278;52.110;6.050;2024-01-10T07:48:11;8.83;;;4.70;;
37411;SDS011;23278;52.110;6.050;2024-01-10T07:50:37;9.60;;;4.63;;
37411;SDS011;23278;52.110;6.050;2024-01-10T07:53:03;9.60;;;5.13;;
37411;SDS011;23278;52.110;6.050;2024-01-10T07:55:29;8.13;;;4.60;;
37411;SDS011;23278;52.110;6.050;2024-01-10T07:57:55;7.80;;;4.63;;
37411;SDS011;23278;52.110;6.050;2024-01-10T08:00:21;7.40;;;3.80;;
37411;SDS011;23278;52.110;6.050;2024-01-10T08:02:47;7.77;;;4.37;;
37411;SDS011;23278;52.110;6.050;2024-01-10T08:05:15;7.80;;;3.07;;
37411;SDS011;23278;52.110;6.050;2024-01-10T08:07:41;8.07;;;3.37;;
37411;SDS011;23278;52.110;6.050;2024-01-10T08:10:07;8.73;;;4.73;;
37411;SDS011;23278;52.110;6.050;2024-01-10T08:12:37;7.90;;;3.50;;
37411;SDS011;23278;52.110;6.050;2024-01-10T08:15:04;9.33;;;4.07;;
37411;SDS011;23278;52.110;6.050;2024-01-10T08:17:31;8.50;;;3.70;;
37411;SDS011;23278;52.110;6.050;2024-01-10T08:19:58;7.80;;;4.27;;
37411;SDS011;23278;52.110;6.050;2024-01-10T08:22:25;9.20;;;3.80;;
37411;SDS011;23278;52.110;6.050;2024-01-10T08:24:52;10.37;;;5.40;;
37411;SDS011;23278;52.110;6.050;2024-01-10T08:27:17;10.83;;;5.63;;
37411;SDS011;23278;52.110;6.050;2024-01-10T08:29:43;10.57;;;5.00;;
37411;SDS011;23278;52.110;6.050;2024-01-10T08:32:10;9.83;;;5.20;;
37411;SDS011;23278;52.110;6.050;2024-01-10T08:34:36;10.70;;;5.77;;
37411;SDS011;23278;52.110;6.050;2024-01-10T08:37:02;9.80;;;4.73;;
37411;SDS011;23278;52.110;6.050;2024-01-10T08:39:28;12.57;;;6.10;;
37411;SDS011;23278;52.110;6.050;2024-01-10T08:41:58;9.00;;;4.40;;
37411;SDS011;23278;52.110;6.050;2024-01-10T08:44:24;10.53;;;5.23;;
37411;SDS011;23278;52.110;6.050;2024-01-10T08:46:50;11.83;;;6.10;;
37411;SDS011;23278;52.110;6.050;2024-01-10T08:49:16;10.37;;;5.27;;
37411;SDS011;23278;52.110;6.050;2024-01-10T08:51:43;11.63;;;6.60;;
37411;SDS011;23278;52.110;6.050;2024-01-10T08:54:11;12.97;;;5.47;;
37411;SDS011;23278;52.110;6.050;2024-01-10T08:56:48;11.17;;;6.13;;
37411;SDS011;23278;52.110;6.050;2024-01-10T08:59:14;11.07;;;6.50;;
37411;SDS011;23278;52.110;6.050;2024-01-10T09:01:40;11.80;;;6.27;;
37411;SDS011;23278;52.110;6.050;2024-01-10T09:04:06;11.73;;;5.83;;
37411;SDS011;23278;52.110;6.050;2024-01-10T09:06:32;12.47;;;5.70;;
37411;SDS011;23278;52.110;6.050;2024-01-10T09:08:58;10.53;;;5.97;;
37411;SDS011;23278;52.110;6.050;2024-01-10T09:11:24;9.63;;;5.53;;
37411;SDS011;23278;52.110;6.050;2024-01-10T09:13:50;10.33;;;5.93;;
37411;SDS011;23278;52.110;6.050;2024-01-10T09:16:17;11.70;;;6.40;;
37411;SDS011;23278;52.110;6.050;2024-01-10T09:18:46;11.93;;;5.67;;
37411;SDS011;23278;52.110;6.050;2024-01-10T09:21:11;9.80;;;5.40;;
37411;SDS011;23278;52.110;6.050;2024-01-10T09:23:37;11.10;;;5.23;;
37411;SDS011;23278;52.110;6.050;2024-01-10T09:26:03;12.77;;;5.90;;
37411;SDS011;23278;52.110;6.050;2024-01-10T09:28:29;10.27;;;5.50;;
37411;SDS011;23278;52.110;6.050;2024-01-10T09:30:55;9.37;;;5.30;;
37411;SDS011;23278;52.110;6.050;2024-01-10T09:33:21;6.47;;;4.50;;
37411;SDS011;23278;52.110;6.050;2024-01-10T09:35:48;9.47;;;6.67;;
37411;SDS011;23278;52.110;6.050;2024-01-10T09:38:17;10.88;;;6.40;;
37411;SDS011;23278;52.110;6.050;2024-01-10T09:40:45;10.57;;;6.95;;
37411;SDS011;23278;52.110;6.050;2024-01-10T09:43:11;11.90;;;7.35;;
37411;SDS011;23278;52.110;6.050;2024-01-10T09:45:38;11.43;;;6.80;;
37411;SDS011;23278;52.110;6.050;2024-01-10T09:48:13;7.50;;;5.03;;
37411;SDS011;23278;52.110;6.050;2024-01-10T09:50:39;9.73;;;5.50;;
37411;SDS011;23278;52.110;6.050;2024-01-10T09:53:05;12.13;;;7.00;;
37411;SDS011;23278;52.110;6.050;2024-01-10T09:55:35;11.07;;;5.75;;
37411;SDS011;23278;52.110;6.050;2024-01-10T09:58:06;10.35;;;6.00;;
37411;SDS011;23278;52.110;6.050;2024-01-10T10:00:34;8.07;;;5.53;;
37411;SDS011;23278;52.110;6.050;2024-01-10T10:03:02;8.68;;;5.05;;
37411;SDS011;23278;52.110;6.050;2024-01-10T10:05:31;11.15;;;6.88;;
37411;SDS011;23278;52.110;6.050;2024-01-10T10:07:59;9.32;;;5.63;;
37411;SDS011;23278;52.110;6.050;2024-01-10T10:10:25;9.18;;;5.32;;
37411;SDS011;23278;52.110;6.050;2024-01-10T10:12:53;8.32;;;5.70;;
37411;SDS011;23278;52.110;6.050;2024-01-10T10:15:23;11.45;;;5.82;;
37411;SDS011;23278;52.110;6.050;2024-01-10T10:17:51;11.52;;;6.30;;
37411;SDS011;23278;52.110;6.050;2024-01-10T10:25:31;10.07;;;6.30;;
37411;SDS011;23278;52.110;6.050;2024-01-10T10:28:03;9.10;;;5.65;;
37411;SDS011;23278;52.110;6.050;2024-01-10T10:30:31;9.57;;;5.60;;
37411;SDS011;23278;52.110;6.050;2024-01-10T10:32:58;9.07;;;5.60;;
37411;SDS011;23278;52.110;6.050;2024-01-10T10:35:24;8.68;;;6.40;;
37411;SDS011;23278;52.110;6.050;2024-01-10T10:37:50;8.38;;;6.32;;
37411;SDS011;23278;52.110;6.050;2024-01-10T10:40:17;10.30;;;6.47;;
37411;SDS011;23278;52.110;6.050;2024-01-10T10:42:48;7.97;;;6.40;;
37411;SDS011;23278;52.110;6.050;2024-01-10T10:45:18;9.60;;;6.75;;
37411;SDS011;23278;52.110;6.050;2024-01-10T10:47:47;8.73;;;5.90;;
37411;SDS011;23278;52.110;6.050;2024-01-10T10:50:22;9.77;;;6.93;;
37411;SDS011;23278;52.110;6.050;2024-01-10T10:52:48;12.75;;;6.45;;
37411;SDS011;23278;52.110;6.050;2024-01-10T10:55:16;8.30;;;5.85;;
37411;SDS011;23278;52.110;6.050;2024-01-10T10:57:47;8.98;;;6.00;;
37411;SDS011;23278;52.110;6.050;2024-01-10T11:00:20;7.90;;;5.70;;
37411;SDS011;23278;52.110;6.050;2024-01-10T11:02:52;8.95;;;5.90;;
37411;SDS011;23278;52.110;6.050;2024-01-10T11:05:20;11.18;;;5.78;;
37411;SDS011;23278;52.110;6.050;2024-01-10T11:07:47;8.60;;;6.28;;
37411;SDS011;23278;52.110;6.050;2024-01-10T11:10:30;9.73;;;5.43;;
37411;SDS011;23278;52.110;6.050;2024-01-10T11:16:13;7.90;;;5.75;;
37411;SDS011;23278;52.110;6.050;2024-01-10T11:22:14;9.32;;;6.22;;
37411;SDS011;23278;52.110;6.050;2024-01-10T11:25:01;8.30;;;5.60;;
37411;SDS011;23278;52.110;6.050;2024-01-10T11:27:27;11.60;;;6.75;;
37411;SDS011;23278;52.110;6.050;2024-01-10T11:29:52;8.57;;;5.97;;
37411;SDS011;23278;52.110;6.050;2024-01-10T11:32:29;10.95;;;6.75;;
37411;SDS011;23278;52.110;6.050;2024-01-10T11:35:04;9.93;;;6.85;;
37411;SDS011;23278;52.110;6.050;2024-01-10T11:37:43;9.68;;;6.63;;
37411;SDS011;23278;52.110;6.050;2024-01-10T11:40:10;8.70;;;6.60;;
37411;SDS011;23278;52.110;6.050;2024-01-10T11:42:42;9.60;;;7.05;;
37411;SDS011;23278;52.110;6.050;2024-01-10T11:45:09;9.25;;;6.05;;
37411;SDS011;23278;52.110;6.050;2024-01-10T11:47:39;19.85;;;8.27;;
37411;SDS011;23278;52.110;6.050;2024-01-10T11:50:07;9.30;;;6.60;;
37411;SDS011;23278;52.110;6.050;2024-01-10T11:52:33;8.05;;;6.35;;
37411;SDS011;23278;52.110;6.050;2024-01-10T11:55:02;10.23;;;7.13;;
37411;SDS011;23278;52.110;6.050;2024-01-10T11:57:32;9.73;;;7.03;;
37411;SDS011;23278;52.110;6.050;2024-01-10T11:59:58;8.65;;;6.55;;
37411;SDS011;23278;52.110;6.050;2024-01-10T12:02:26;8.20;;;5.97;;
37411;SDS011;23278;52.110;6.050;2024-01-10T12:04:56;8.00;;;5.75;;
37411;SDS011;23278;52.110;6.050;2024-01-10T12:07:22;8.10;;;6.47;;
37411;SDS011;23278;52.110;6.050;2024-01-10T12:09:49;15.07;;;7.30;;
37411;SDS011;23278;52.110;6.050;2024-01-10T12:12:15;10.07;;;7.68;;
37411;SDS011;23278;52.110;6.050;2024-01-10T12:14:41;6.85;;;5.68;;
37411;SDS011;23278;52.110;6.050;2024-01-10T12:17:11;8.73;;;6.68;;
37411;SDS011;23278;52.110;6.050;2024-01-10T12:19:37;8.77;;;6.18;;
37411;SDS011;23278;52.110;6.050;2024-01-10T12:22:06;7.72;;;5.70;;
37411;SDS011;23278;52.110;6.050;2024-01-10T12:24:32;7.85;;;6.38;;
37411;SDS011;23278;52.110;6.050;2024-01-10T12:26:58;7.95;;;5.53;;
37411;SDS011;23278;52.110;6.050;2024-01-10T12:29:24;10.00;;;5.70;;
37411;SDS011;23278;52.110;6.050;2024-01-10T12:31:51;10.48;;;7.07;;
37411;SDS011;23278;52.110;6.050;2024-01-10T12:34:19;8.32;;;6.32;;
37411;SDS011;23278;52.110;6.050;2024-01-10T12:36:46;8.70;;;6.47;;
37411;SDS011;23278;52.110;6.050;2024-01-10T12:39:13;7.57;;;6.53;;
37411;SDS011;23278;52.110;6.050;2024-01-10T12:41:40;8.63;;;5.38;;
37411;SDS011;23278;52.110;6.050;2024-01-10T12:44:06;8.10;;;5.95;;
37411;SDS011;23278;52.110;6.050;2024-01-10T12:46:32;11.25;;;5.93;;
37411;SDS011;23278;52.110;6.050;2024-01-10T12:49:06;10.18;;;6.68;;
37411;SDS011;23278;52.110;6.050;2024-01-10T12:51:33;8.77;;;6.15;;
37411;SDS011;23278;52.110;6.050;2024-01-10T12:54:02;7.95;;;6.20;;
37411;SDS011;23278;52.110;6.050;2024-01-10T12:56:29;8.82;;;5.72;;
37411;SDS011;23278;52.110;6.050;2024-01-10T12:58:55;8.48;;;6.40;;
37411;SDS011;23278;52.110;6.050;2024-01-10T13:01:24;9.23;;;6.78;;
37411;SDS011;23278;52.110;6.050;2024-01-10T13:03:50;9.88;;;6.05;;
37411;SDS011;23278;52.110;6.050;2024-01-10T13:06:17;8.30;;;6.10;;
37411;SDS011;23278;52.110;6.050;2024-01-10T13:08:44;6.85;;;4.80;;
37411;SDS011;23278;52.110;6.050;2024-01-10T13:11:11;7.05;;;5.38;;
37411;SDS011;23278;52.110;6.050;2024-01-10T13:13:39;7.25;;;5.95;;
37411;SDS011;23278;52.110;6.050;2024-01-10T13:16:05;9.23;;;6.55;;
37411;SDS011;23278;52.110;6.050;2024-01-10T13:18:32;8.38;;;5.72;;
37411;SDS011;23278;52.110;6.050;2024-01-10T13:20:58;9.20;;;6.28;;
37411;SDS011;23278;52.110;6.050;2024-01-10T13:23:24;7.90;;;6.68;;
37411;SDS011;23278;52.110;6.050;2024-01-10T13:25:51;6.15;;;5.03;;
37411;SDS011;23278;52.110;6.050;2024-01-10T13:28:18;6.63;;;5.15;;
37411;SDS011;23278;52.110;6.050;2024-01-10T13:30:44;7.10;;;5.20;;
37411;SDS011;23278;52.110;6.050;2024-01-10T13:33:10;6.20;;;4.47;;
37411;SDS011;23278;52.110;6.050;2024-01-10T13:35:36;7.97;;;5.30;;
37411;SDS011;23278;52.110;6.050;2024-01-10T13:38:03;7.80;;;5.35;;
37411;SDS011;23278;52.110;6.050;2024-01-10T13:40:30;8.00;;;5.22;;
37411;SDS011;23278;52.110;6.050;2024-01-10T13:42:59;6.65;;;5.53;;
37411;SDS011;23278;52.110;6.050;2024-01-10T13:45:28;6.82;;;4.50;;
37411;SDS011;23278;52.110;6.050;2024-01-10T13:47:54;7.85;;;5.10;;
37411;SDS011;23278;52.110;6.050;2024-01-10T13:50:20;9.45;;;6.25;;
37411;SDS011;23278;52.110;6.050;2024-01-10T13:52:47;8.93;;;6.22;;
37411;SDS011;23278;52.110;6.050;2024-01-10T13:55:13;7.63;;;4.90;;
37411;SDS011;23278;52.110;6.050;2024-01-10T13:57:39;8.07;;;5.65;;
37411;SDS011;23278;52.110;6.050;2024-01-10T14:00:05;7.32;;;5.18;;
37411;SDS011;23278;52.110;6.050;2024-01-10T14:02:37;7.05;;;4.97;;
37411;SDS011;23278;52.110;6.050;2024-01-10T14:05:03;6.05;;;4.85;;
37411;SDS011;23278;52.110;6.050;2024-01-10T14:07:32;8.60;;;5.82;;
37411;SDS011;23278;52.110;6.050;2024-01-10T14:09:59;7.20;;;5.57;;
37411;SDS011;23278;52.110;6.050;2024-01-10T14:12:26;9.73;;;4.53;;
37411;SDS011;23278;52.110;6.050;2024-01-10T14:14:53;7.63;;;5.35;;
37411;SDS011;23278;52.110;6.050;2024-01-10T14:17:19;8.07;;;6.20;;
37411;SDS011;23278;52.110;6.050;2024-01-10T14:19:45;8.52;;;5.20;;
37411;SDS011;23278;52.110;6.050;2024-01-10T14:22:10;7.93;;;5.25;;
37411;SDS011;23278;52.110;6.050;2024-01-10T14:24:36;9.35;;;5.80;;
37411;SDS011;23278;52.110;6.050;2024-01-10T14:27:04;7.68;;;4.93;;
37411;SDS011;23278;52.110;6.050;2024-01-10T14:29:29;8.52;;;5.30;;
37411;SDS011;23278;52.110;6.050;2024-01-10T14:31:55;8.82;;;5.88;;
37411;SDS011;23278;52.110;6.050;2024-01-10T14:34:21;13.48;;;6.40;;
37411;SDS011;23278;52.110;6.050;2024-01-10T14:36:47;9.50;;;6.88;;
37411;SDS011;23278;52.110;6.050;2024-01-10T14:39:13;11.35;;;7.78;;
37411;SDS011;23278;52.110;6.050;2024-01-10T14:41:40;18.50;;;10.60;;
37411;SDS011;23278;52.110;6.050;2024-01-10T14:44:06;14.15;;;8.13;;
37411;SDS011;23278;52.110;6.050;2024-01-10T14:46:32;13.45;;;7.85;;
37411;SDS011;23278;52.110;6.050;2024-01-10T14:48:58;8.45;;;6.65;;
37411;SDS011;23278;52.110;6.050;2024-01-10T14:51:24;22.73;;;14.52;;
37411;SDS011;23278;52.110;6.050;2024-01-10T14:53:50;18.60;;;13.15;;
37411;SDS011;23278;52.110;6.050;2024-01-10T14:56:16;15.65;;;10.15;;